UUDD/DME METAR and TAF weather

Enter ICAO airport designator
Station Type Date Time Source
UUDD METAR 2018/12/17 16:30 UTC NOAA

UUDD 171630Z 11003MPS 4900 -SN BR SCT006 OVC014 M15/M17 Q1035 R14R/420194 R14L/420195 TEMPO 0400 FZFG


Station Type Date Time Source
UUDD Decoded METAR 2018/12/17 16:30 UTC NOAA

Moscow / Domodedovo, Russia (UUDD) 55-24N 037-54E
Dec 17, 2018 - 11:30 AM EST / 2018.12.17 1630 UTC
Wind: from the ESE (110 degrees) at 7 MPH (6 KT):0
Visibility: 3 mile(s):0
Sky conditions: overcast
Weather: light snow; mist
Temperature: 5 F (-15 C)
Windchill: -7 F (-22 C):2
Dew Point: 1 F (-17 C)
Relative Humidity: 84%
Pressure (altimeter): 30.56 in. Hg (1035 hPa)
ob: UUDD 171630Z 11003MPS 4900 -SN BR SCT006 OVC014 M15/M17 Q1035 R14R/420194 R14L/420195 TEMPO 0400 FZFG
cycle: 16

Station Type Date Time Source
UUDD TAF 2018/12/17 15:21 UTC NOAA

TAF UUDD 171358Z 1715/1821 12003MPS 3100 -SN BR OVC004 TXM12/1811Z TNM16/1803Z
TEMPO 1715/1808 0300 FZFG OVC001
BECMG 1808/1810 5000 BR FEW004 BKN011


Example: see airport list